createdAt,value
2023-01-19T00:03:18.067Z,80.60
2023-01-19T00:08:21.526Z,80.40
2023-01-19T00:13:25.065Z,80.60
2023-01-19T00:18:30.031Z,80.60
2023-01-19T00:23:33.456Z,80.80
2023-01-19T00:28:36.919Z,80.40
2023-01-19T00:33:41.824Z,80.50
2023-01-19T00:38:45.305Z,80.20
2023-01-19T00:43:48.814Z,80.50
2023-01-19T00:48:53.678Z,80.50
2023-01-19T00:53:57.101Z,80.40
2023-01-19T00:59:00.808Z,80.30
2023-01-19T01:04:05.823Z,80.20
2023-01-19T01:09:12.224Z,80.40
2023-01-19T01:14:15.686Z,80.30
2023-01-19T01:19:20.618Z,80.50
2023-01-19T01:24:24.039Z,80.30
2023-01-19T01:29:27.522Z,80.60
2023-01-19T01:34:32.421Z,80.30
2023-01-19T01:39:35.926Z,80.40
2023-01-19T01:44:53.599Z,80.20
2023-01-19T01:50:03.449Z,80.30
2023-01-19T01:55:08.685Z,80.40
2023-01-19T02:00:12.998Z,80.30
2023-01-19T02:05:22.384Z,80.40
2023-01-19T02:10:43.159Z,80.40
2023-01-19T02:15:46.719Z,80.20
2023-01-19T02:20:58.071Z,80.10
2023-01-19T02:26:03.722Z,80.40
2023-01-19T02:31:07.659Z,80.30
2023-01-19T02:36:12.734Z,80.10
2023-01-19T02:41:21.437Z,80.30
2023-01-19T02:46:25.057Z,80.30
2023-01-19T02:51:29.547Z,80.20
2023-01-19T02:56:41.462Z,80.40
2023-01-19T03:01:54.457Z,80.30
2023-01-19T03:07:03.607Z,80.20
2023-01-19T03:12:13.492Z,79.90
2023-01-19T03:17:18.879Z,80.30
2023-01-19T03:22:25.657Z,79.90
2023-01-19T03:27:32.537Z,80.10
2023-01-19T03:32:38.589Z,80.00
2023-01-19T03:37:44.731Z,80.10
2023-01-19T03:42:51.619Z,80.20
2023-01-19T03:47:56.019Z,80.00
2023-01-19T03:53:04.167Z,79.60
2023-01-19T03:58:10.190Z,79.80
2023-01-19T04:03:15.748Z,79.80
2023-01-19T04:08:19.543Z,80.00
2023-01-19T04:13:24.399Z,80.20
2023-01-19T04:18:27.910Z,79.70
2023-01-19T04:23:31.407Z,79.90
2023-01-19T04:28:37.285Z,79.70
2023-01-19T04:33:40.826Z,79.70
2023-01-19T04:38:44.659Z,79.70
2023-01-19T04:43:49.590Z,79.70
2023-01-19T04:48:53.038Z,79.90
2023-01-19T04:53:57.519Z,79.70
2023-01-19T04:59:02.489Z,79.90
2023-01-19T05:04:07.190Z,79.70
2023-01-19T05:09:13.309Z,79.70
2023-01-19T05:14:18.274Z,79.70
2023-01-19T05:19:21.703Z,79.70
2023-01-19T05:24:25.307Z,79.70
2023-01-19T05:29:30.198Z,79.80
2023-01-19T05:34:33.666Z,80.00
2023-01-19T05:39:37.254Z,79.50
2023-01-19T05:44:42.321Z,79.80
2023-01-19T05:49:45.960Z,79.70
2023-01-19T05:54:49.630Z,80.30
2023-01-19T05:59:54.485Z,79.90
2023-01-19T06:04:58.487Z,80.00
2023-01-19T06:10:02.116Z,79.80
2023-01-19T06:15:08.314Z,79.90
2023-01-19T06:20:14.218Z,80.10
2023-01-19T06:25:17.870Z,79.90
2023-01-19T06:30:23.284Z,80.00
2023-01-19T06:35:27.244Z,79.90
2023-01-19T06:40:30.716Z,79.70
2023-01-19T06:45:36.148Z,79.90
2023-01-19T06:50:41.039Z,80.10
2023-01-19T06:55:44.545Z,80.10
2023-01-19T07:00:51.936Z,80.00
2023-01-19T07:05:57.011Z,80.10
2023-01-19T07:11:27.146Z,80.30
2023-01-19T07:16:27.006Z,80.10
2023-01-19T07:21:30.609Z,80.00
2023-01-19T07:26:34.059Z,79.90
2023-01-19T07:31:39.028Z,80.10
2023-01-19T07:36:42.615Z,80.10
2023-01-19T07:41:46.155Z,80.20
2023-01-19T07:46:51.405Z,79.90
2023-01-19T07:51:56.511Z,80.20
2023-01-19T07:57:01.050Z,80.20
2023-01-19T08:02:06.132Z,80.10
2023-01-19T08:07:10.285Z,80.20
2023-01-19T08:12:13.767Z,80.20
2023-01-19T08:17:19.539Z,79.90
2023-01-19T08:22:23.030Z,80.30
2023-01-19T08:27:26.582Z,80.20
2023-01-19T08:32:31.661Z,80.30
2023-01-19T08:37:35.202Z,80.20
2023-01-19T08:42:38.618Z,80.20
2023-01-19T08:47:43.628Z,80.10
2023-01-19T08:52:47.135Z,80.20
2023-01-19T08:57:52.698Z,80.50
2023-01-19T09:02:57.792Z,80.10
2023-01-19T09:08:01.580Z,80.30
2023-01-19T09:13:05.608Z,80.30
2023-01-19T09:18:13.729Z,80.00
2023-01-19T09:23:18.961Z,80.10
2023-01-19T09:28:22.566Z,80.10
2023-01-19T09:33:27.479Z,80.30
2023-01-19T09:38:33.222Z,80.30
2023-01-19T09:43:39.531Z,80.10
2023-01-19T09:48:49.727Z,80.20
2023-01-19T09:54:06.505Z,79.80
2023-01-19T09:59:22.009Z,80.00
2023-01-19T10:04:32.649Z,80.20
2023-01-19T10:09:41.822Z,80.20
2023-01-19T10:14:49.231Z,79.80
2023-01-19T10:19:55.932Z,79.90
2023-01-19T10:25:01.859Z,79.80
2023-01-19T10:30:06.360Z,79.70
2023-01-19T10:35:23.587Z,79.60
2023-01-19T10:40:31.649Z,79.70
2023-01-19T10:45:36.826Z,79.60
2023-01-19T10:50:41.934Z,79.40
2023-01-19T10:55:45.706Z,79.70
2023-01-19T11:00:49.155Z,79.60
2023-01-19T11:05:54.107Z,79.60
2023-01-19T11:11:02.637Z,79.80
2023-01-19T11:16:07.635Z,79.90
2023-01-19T11:21:14.239Z,79.60
2023-01-19T11:26:25.883Z,79.80
2023-01-19T11:31:34.763Z,79.70
2023-01-19T11:36:39.710Z,79.70
2023-01-19T11:41:43.711Z,79.60
2023-01-19T11:46:50.342Z,79.70
2023-01-19T11:52:01.462Z,79.70
2023-01-19T11:57:11.563Z,79.50
2023-01-19T12:02:21.951Z,79.90
2023-01-19T12:07:29.525Z,79.80
2023-01-19T12:12:35.460Z,79.80
2023-01-19T12:17:44.478Z,79.90
2023-01-19T12:22:53.958Z,79.90
2023-01-19T12:27:58.004Z,79.70
2023-01-19T12:33:36.056Z,80.10
2023-01-19T12:38:47.328Z,80.00
2023-01-19T12:44:19.242Z,80.00
2023-01-19T12:49:27.390Z,80.00
2023-01-19T12:54:33.137Z,80.20
2023-01-19T12:59:38.027Z,80.20
2023-01-19T13:04:41.401Z,80.10
2023-01-19T13:09:46.199Z,80.10
2023-01-19T13:14:50.903Z,80.50
2023-01-19T13:20:01.162Z,80.40
2023-01-19T13:25:10.631Z,80.30
2023-01-19T13:30:17.438Z,80.30
2023-01-19T13:35:21.887Z,80.70
2023-01-19T13:40:33.146Z,80.60
2023-01-19T13:45:40.274Z,80.50
2023-01-19T13:50:45.628Z,80.60
2023-01-19T13:55:51.743Z,80.60
2023-01-19T14:00:55.278Z,80.60
2023-01-19T14:05:58.889Z,80.50
2023-01-19T14:11:04.482Z,80.50
2023-01-19T14:16:09.085Z,80.70
2023-01-19T14:21:14.070Z,80.80
2023-01-19T14:26:45.229Z,80.60
2023-01-19T14:31:50.113Z,80.80
2023-01-19T14:36:53.567Z,81.00
2023-01-19T14:42:00.415Z,80.90
2023-01-19T14:47:04.811Z,80.90
2023-01-19T14:52:17.131Z,81.00
2023-01-19T14:57:21.952Z,80.70
2023-01-19T15:02:25.533Z,80.90
2023-01-19T15:07:29.681Z,81.00
2023-01-19T15:12:34.563Z,81.00
2023-01-19T15:17:38.005Z,81.40
2023-01-19T15:22:41.506Z,81.20
2023-01-19T15:27:47.453Z,81.20
2023-01-19T15:32:51.034Z,81.30
2023-01-19T15:37:54.523Z,81.50
2023-01-19T15:42:59.375Z,81.50
2023-01-19T15:48:04.070Z,81.50
2023-01-19T15:53:07.746Z,81.60
2023-01-19T15:58:14.227Z,81.40
2023-01-19T16:03:17.663Z,81.60
2023-01-19T16:08:22.234Z,81.50
2023-01-19T16:13:30.210Z,81.80
2023-01-19T16:18:33.755Z,81.70
2023-01-19T16:23:37.214Z,81.80
2023-01-19T16:28:42.073Z,81.80
2023-01-19T16:33:46.226Z,81.80
2023-01-19T16:38:49.679Z,81.90
2023-01-19T16:43:55.921Z,82.00
2023-01-19T16:49:00.864Z,81.80
2023-01-19T16:54:21.044Z,82.00
2023-01-19T16:59:27.334Z,81.90
2023-01-19T17:04:31.052Z,82.20
2023-01-19T17:09:34.583Z,82.30
2023-01-19T17:14:40.479Z,82.10
2023-01-19T17:19:45.320Z,82.20
2023-01-19T17:24:49.339Z,82.30
2023-01-19T17:29:54.274Z,82.20
2023-01-19T17:34:57.781Z,82.20
2023-01-19T17:40:01.218Z,82.50
2023-01-19T17:45:06.729Z,82.30
2023-01-19T17:50:11.406Z,82.30
2023-01-19T17:55:15.077Z,82.20
2023-01-19T18:00:20.913Z,82.40
2023-01-19T18:05:24.666Z,82.60
2023-01-19T18:10:28.107Z,82.50
2023-01-19T18:15:33.020Z,82.40
2023-01-19T18:20:40.040Z,82.50
2023-01-19T18:25:43.453Z,82.50
2023-01-19T18:30:48.368Z,82.50
2023-01-19T18:35:52.033Z,82.70
2023-01-19T18:41:02.519Z,82.60
2023-01-19T18:46:07.943Z,82.40
2023-01-19T18:51:13.421Z,82.50
2023-01-19T18:56:17.428Z,82.70
2023-01-19T19:01:27.073Z,82.50
2023-01-19T19:06:30.526Z,82.50
2023-01-19T19:11:33.914Z,82.80
2023-01-19T19:16:39.627Z,82.60
2023-01-19T19:21:43.186Z,82.80
2023-01-19T19:26:46.742Z,82.80
2023-01-19T19:31:51.558Z,82.80
2023-01-19T19:36:55.005Z,82.60
2023-01-19T19:41:58.433Z,82.80
2023-01-19T19:47:03.190Z,82.80
2023-01-19T19:52:06.749Z,82.50
2023-01-19T19:57:10.131Z,82.70
2023-01-19T20:02:14.925Z,83.10
2023-01-19T20:07:18.419Z,82.70
2023-01-19T20:12:21.842Z,82.80
2023-01-19T20:17:26.619Z,82.90
2023-01-19T20:22:29.984Z,83.10
2023-01-19T20:27:33.377Z,82.70
2023-01-19T20:32:40.398Z,82.90
2023-01-19T20:37:43.798Z,82.80
2023-01-19T20:42:47.188Z,82.80
2023-01-19T20:47:52.631Z,82.70
2023-01-19T20:52:56.001Z,82.90
2023-01-19T20:57:59.354Z,82.80
2023-01-19T21:03:04.126Z,82.70
2023-01-19T21:08:07.515Z,83.00
2023-01-19T21:13:10.882Z,83.00
2023-01-19T21:18:15.663Z,83.00
2023-01-19T21:23:20.028Z,83.10
2023-01-19T21:28:23.937Z,83.20
2023-01-19T21:33:28.699Z,83.10
2023-01-19T21:38:32.171Z,83.10
2023-01-19T21:43:37.265Z,83.30
2023-01-19T21:48:42.206Z,83.30
2023-01-19T21:53:45.569Z,83.20
2023-01-19T21:58:49.044Z,83.30
2023-01-19T22:03:56.469Z,83.20
2023-01-19T22:09:00.926Z,83.40
2023-01-19T22:14:04.360Z,83.20
2023-01-19T22:19:13.059Z,83.20
2023-01-19T22:24:16.424Z,83.10
2023-01-19T22:29:19.832Z,83.10
2023-01-19T22:34:24.612Z,83.30
2023-01-19T22:39:28.230Z,83.50
2023-01-19T22:44:31.608Z,83.30
2023-01-19T22:49:36.407Z,83.30
2023-01-19T22:54:39.750Z,83.60
2023-01-19T22:59:43.755Z,83.60
2023-01-19T23:04:48.542Z,83.80
2023-01-19T23:09:51.899Z,83.40
2023-01-19T23:14:55.310Z,83.60
2023-01-19T23:20:00.034Z,83.60
2023-01-19T23:25:03.645Z,83.60
2023-01-19T23:30:09.191Z,83.50
2023-01-19T23:35:14.747Z,84.00
2023-01-19T23:40:18.515Z,83.80
2023-01-19T23:45:21.850Z,83.60
2023-01-19T23:50:26.618Z,83.60
2023-01-19T23:55:30.053Z,83.70
